Time;durP1;ratioP1;P1;durP2;ratioP2;P2;SDS_P1;SDS_P2;PMS_P1;PMS_P2;Temp;Humidity;BMP_temperature;BMP_pressure;BME280_temperature;BME280_humidity;BME280_pressure;Samples;Min_cycle;Max_cycle;Signal;HPM_P1;HPM_P2
2023/04/12 00:01:53;;;;;;;31.70;26.33;;;6.40;99.90;;;;;;5034875;28;20309;-54
2023/04/12 00:04:27;;;;;;;61.40;45.77;;;6.40;99.90;;;;;;5029978;28;20235;-54
2023/04/12 00:06:56;;;;;;;43.30;21.20;;;6.40;99.90;;;;;;5030014;28;20271;-53
2023/04/12 00:09:29;;;;;;;110.67;77.80;;;6.40;99.90;;;;;;5028441;28;20221;-53
2023/04/12 00:11:59;;;;;;;77.50;42.93;;;6.40;99.90;;;;;;5029926;28;20300;-54
2023/04/12 00:14:27;;;;;;;203.67;95.80;;;6.40;99.90;;;;;;5029934;28;20237;-54
2023/04/12 00:16:55;;;;;;;36.07;25.77;;;6.40;99.90;;;;;;5030063;28;20206;-53
2023/04/12 00:19:24;;;;;;;23.77;21.27;;;6.40;99.90;;;;;;5027928;28;20206;-55
2023/04/12 00:21:52;;;;;;;50.53;41.67;;;6.40;99.90;;;;;;5030096;28;20226;-54
2023/04/12 00:24:20;;;;;;;48.93;35.70;;;6.50;99.90;;;;;;5029645;28;20269;-54
2023/04/12 00:26:48;;;;;;;154.17;67.60;;;6.50;99.90;;;;;;5029946;28;20249;-54
2023/04/12 00:29:18;;;;;;;120.77;57.13;;;6.50;99.90;;;;;;5029725;28;20695;-53
2023/04/12 00:31:46;;;;;;;26.60;24.20;;;6.50;99.90;;;;;;5028929;28;20293;-54
2023/04/12 00:34:14;;;;;;;26.93;19.40;;;6.50;99.90;;;;;;5029567;28;20230;-54
2023/04/12 00:36:42;;;;;;;47.27;23.47;;;6.50;99.90;;;;;;5030002;28;20356;-53
2023/04/12 00:39:10;;;;;;;32.50;17.30;;;6.60;99.90;;;;;;5029259;28;20305;-53
2023/04/12 00:41:38;;;;;;;56.90;42.40;;;6.60;99.90;;;;;;5029587;28;20316;-53
2023/04/12 00:44:06;;;;;;;56.80;35.63;;;6.60;99.90;;;;;;5026512;28;20229;-54
2023/04/12 00:46:36;;;;;;;46.93;25.93;;;6.60;99.90;;;;;;5025553;28;20206;-52
2023/04/12 00:49:05;;;;;;;46.53;39.00;;;6.60;99.90;;;;;;5026355;28;20730;-53
2023/04/12 00:51:33;;;;;;;47.00;28.37;;;6.60;99.90;;;;;;5029423;28;20198;-53
2023/04/12 00:54:01;;;;;;;356.67;89.83;;;6.60;99.90;;;;;;5032419;28;20260;-54
2023/04/12 00:56:30;;;;;;;542.80;178.17;;;6.60;99.90;;;;;;5032226;28;20256;-54
2023/04/12 00:58:59;;;;;;;84.63;52.50;;;6.60;99.90;;;;;;5028847;28;20294;-54
2023/04/12 01:01:27;;;;;;;128.93;61.60;;;6.60;99.90;;;;;;5028986;28;20731;-54
2023/04/12 01:03:59;;;;;;;80.47;38.40;;;6.60;99.90;;;;;;5028930;28;20230;-53
2023/04/12 01:06:48;;;;;;;167.03;86.67;;;6.60;99.90;;;;;;5028920;28;20259;-52
2023/04/12 01:09:30;;;;;;;52.13;25.53;;;6.70;99.90;;;;;;5028886;28;20302;-53
2023/04/12 01:12:08;;;;;;;68.40;44.70;;;6.70;99.90;;;;;;5028808;28;20241;-53
2023/04/12 01:14:46;;;;;;;112.80;44.17;;;6.70;99.90;;;;;;5021477;28;20312;-53
2023/04/12 01:17:20;;;;;;;177.30;68.63;;;6.70;99.90;;;;;;5029120;28;20268;-54
2023/04/12 01:19:56;;;;;;;185.27;69.40;;;6.70;99.90;;;;;;5028946;28;20704;-53
2023/04/12 01:22:52;;;;;;;126.17;79.93;;;6.70;99.90;;;;;;5028565;28;20670;-52
2023/04/12 01:25:37;;;;;;;89.97;60.97;;;6.70;99.90;;;;;;5019020;28;20209;-54
2023/04/12 01:28:09;;;;;;;101.67;52.67;;;6.70;99.90;;;;;;5027399;28;20281;-54
2023/04/12 01:30:39;;;;;;;91.93;55.70;;;6.70;99.90;;;;;;5028883;28;20293;-54
2023/04/12 01:33:12;;;;;;;19.80;16.33;;;6.70;99.90;;;;;;5028853;28;20309;-53
2023/04/12 01:35:41;;;;;;;74.90;58.67;;;6.70;99.90;;;;;;5028594;28;20238;-54
2023/04/12 01:38:10;;;;;;;145.03;59.37;;;6.80;99.90;;;;;;5028920;28;20672;-52
2023/04/12 01:40:39;;;;;;;157.10;67.50;;;6.80;99.90;;;;;;5028091;28;20226;-53
2023/04/12 01:43:10;;;;;;;115.40;70.10;;;6.80;99.90;;;;;;5021681;28;20322;-54
2023/04/12 01:45:39;;;;;;;51.30;38.70;;;6.80;99.90;;;;;;5027574;28;20318;-53
2023/04/12 01:48:09;;;;;;;103.20;39.30;;;6.80;99.90;;;;;;5027554;28;20206;-53
2023/04/12 01:50:45;;;;;;;151.83;50.50;;;6.80;99.90;;;;;;5027187;28;20213;-54
2023/04/12 01:53:17;;;;;;;39.40;21.03;;;6.80;99.90;;;;;;5028433;28;20271;-53
2023/04/12 01:55:47;;;;;;;37.73;24.17;;;6.80;99.90;;;;;;5028163;28;20317;-54
2023/04/12 01:58:20;;;;;;;60.87;33.33;;;6.80;99.90;;;;;;5028458;28;20202;-53
2023/04/12 02:00:49;;;;;;;94.27;59.17;;;6.90;99.90;;;;;;5028105;28;20660;-53
2023/04/12 02:03:20;;;;;;;45.67;39.70;;;6.90;99.90;;;;;;5028184;28;20249;-53
2023/04/12 02:05:51;;;;;;;85.63;46.47;;;6.90;99.90;;;;;;5026636;28;20667;-54
2023/04/12 02:08:19;;;;;;;45.57;38.33;;;6.90;99.90;;;;;;5028599;28;20685;-54
2023/04/12 02:10:47;;;;;;;119.07;53.83;;;6.90;99.90;;;;;;5035009;28;20219;-53
2023/04/12 02:13:17;;;;;;;58.70;39.43;;;7.00;99.90;;;;;;5034388;28;20360;-53
2023/04/12 02:15:45;;;;;;;31.03;23.57;;;7.00;99.90;;;;;;5034862;28;20634;-54
2023/04/12 02:18:15;;;;;;;205.20;75.17;;;7.00;99.90;;;;;;5034841;28;20226;-54
2023/04/12 02:20:43;;;;;;;113.70;50.13;;;7.00;99.90;;;;;;5034724;28;20268;-53
2023/04/12 02:23:12;;;;;;;42.03;32.90;;;7.00;99.90;;;;;;5034597;28;20232;-54
2023/04/12 02:25:40;;;;;;;115.40;74.57;;;7.00;99.90;;;;;;5034792;28;20237;-54
2023/04/12 02:28:08;;;;;;;56.17;43.37;;;7.10;99.90;;;;;;5034892;28;20262;-54
2023/04/12 02:30:37;;;;;;;154.63;61.73;;;7.10;99.90;;;;;;5034497;28;20254;-54
2023/04/12 02:33:08;;;;;;;76.50;46.70;;;7.10;99.90;;;;;;5032176;28;20214;-54
2023/04/12 02:35:36;;;;;;;56.93;27.27;;;7.10;99.90;;;;;;5034492;28;20746;-54
2023/04/12 02:38:07;;;;;;;67.73;35.47;;;7.10;99.90;;;;;;5024454;28;20655;-53
2023/04/12 02:40:39;;;;;;;103.17;37.00;;;7.10;99.90;;;;;;5034281;28;20641;-53
2023/04/12 02:43:07;;;;;;;99.63;53.23;;;7.10;99.90;;;;;;5034178;28;20245;-53
2023/04/12 02:45:37;;;;;;;53.70;31.53;;;7.10;99.90;;;;;;5034104;28;20297;-53
2023/04/12 02:48:06;;;;;;;150.37;58.20;;;7.10;99.90;;;;;;5033126;28;20241;-55
2023/04/12 02:50:34;;;;;;;56.50;31.50;;;7.10;99.90;;;;;;5028666;28;20284;-54
2023/04/12 02:53:02;;;;;;;128.10;54.93;;;7.10;99.90;;;;;;5027682;28;20312;-54
2023/04/12 02:55:30;;;;;;;88.57;47.03;;;7.10;99.90;;;;;;5041188;28;20210;-54
2023/04/12 02:57:58;;;;;;;77.07;37.77;;;7.10;99.90;;;;;;5034300;28;20252;-55
2023/04/12 03:00:26;;;;;;;175.80;52.00;;;7.10;99.90;;;;;;5034231;28;20204;-53
2023/04/12 03:02:57;;;;;;;132.73;55.07;;;7.10;99.90;;;;;;5033692;28;20751;-53
2023/04/12 03:05:26;;;;;;;210.20;75.67;;;7.10;99.90;;;;;;5034575;28;20210;-53
2023/04/12 03:07:54;;;;;;;83.83;37.63;;;7.10;99.90;;;;;;5026378;28;20216;-53
2023/04/12 03:10:22;;;;;;;334.43;60.70;;;7.10;99.90;;;;;;5032711;28;20301;-52
2023/04/12 03:12:50;;;;;;;354.83;80.23;;;7.10;99.90;;;;;;5034403;28;20719;-55
2023/04/12 03:15:22;;;;;;;284.43;62.67;;;7.10;99.90;;;;;;5034078;28;20312;-53
2023/04/12 03:17:50;;;;;;;737.13;196.87;;;7.10;99.90;;;;;;5034672;28;20213;-53
2023/04/12 03:20:20;;;;;;;171.87;44.67;;;7.10;99.90;;;;;;5028297;28;20210;-53
2023/04/12 03:22:48;;;;;;;161.67;39.93;;;7.10;99.90;;;;;;5027994;28;20326;-53
2023/04/12 03:25:16;;;;;;;241.90;59.07;;;7.20;99.90;;;;;;5022971;28;20293;-53
2023/04/12 03:27:44;;;;;;;249.73;54.67;;;7.10;99.90;;;;;;5031247;28;20211;-54
2023/04/12 03:30:13;;;;;;;491.03;101.50;;;7.10;99.90;;;;;;5031269;28;20206;-53
2023/04/12 03:32:42;;;;;;;1450.80;175.97;;;7.20;99.90;;;;;;5030711;28;20902;-54
2023/04/12 03:35:10;;;;;;;755.30;129.23;;;7.10;99.90;;;;;;5029108;28;20680;-53
2023/04/12 03:37:41;;;;;;;49.50;21.50;;;7.10;99.90;;;;;;5026466;28;20309;-54
2023/04/12 03:40:10;;;;;;;76.83;30.90;;;7.10;99.90;;;;;;5030377;28;20207;-54
2023/04/12 03:42:38;;;;;;;1019.10;143.13;;;7.20;99.90;;;;;;5030664;28;20338;-53
2023/04/12 03:45:07;;;;;;;295.80;72.07;;;7.20;99.90;;;;;;5030901;28;20229;-54
2023/04/12 03:47:35;;;;;;;239.37;50.00;;;7.20;99.90;;;;;;5029796;28;20202;-54
2023/04/12 03:50:06;;;;;;;132.90;40.17;;;7.20;99.90;;;;;;5028691;28;20617;-53
2023/04/12 03:52:38;;;;;;;136.80;38.67;;;7.20;99.90;;;;;;5029739;28;20221;-54
2023/04/12 03:55:07;;;;;;;175.90;40.53;;;7.20;99.90;;;;;;5035399;28;20647;-52
2023/04/12 03:57:35;;;;;;;530.33;85.90;;;7.20;99.90;;;;;;5030578;28;20635;-54
2023/04/12 04:00:05;;;;;;;537.50;88.10;;;7.20;99.90;;;;;;5030153;28;20305;-52
2023/04/12 04:02:33;;;;;;;1899.77;178.03;;;7.20;99.90;;;;;;5030289;28;20320;-54
2023/04/12 04:05:02;;;;;;;135.20;36.40;;;7.20;99.90;;;;;;5030401;28;20298;-53
2023/04/12 04:07:31;;;;;;;1487.33;220.00;;;7.20;99.90;;;;;;5030502;28;20301;-54
2023/04/12 04:10:01;;;;;;;171.17;56.40;;;7.20;99.90;;;;;;5030207;28;20220;-53
2023/04/12 04:12:29;;;;;;;499.17;69.13;;;7.20;99.90;;;;;;5029894;28;20254;-54
2023/04/12 04:14:57;;;;;;;1999.90;247.57;;;7.20;99.90;;;;;;5029875;28;20297;-54
2023/04/12 04:17:25;;;;;;;544.63;85.90;;;7.20;99.90;;;;;;5029841;28;20296;-53
2023/04/12 04:19:53;;;;;;;1233.70;151.07;;;7.10;99.90;;;;;;5030000;28;20217;-54
2023/04/12 04:22:21;;;;;;;530.63;95.60;;;7.10;99.90;;;;;;5027880;28;20665;-53
2023/04/12 04:24:50;;;;;;;235.77;57.40;;;7.10;99.90;;;;;;5026274;28;20337;-54
2023/04/12 04:27:21;;;;;;;1039.37;116.40;;;7.10;99.90;;;;;;5028949;28;20238;-56
2023/04/12 04:29:49;;;;;;;518.97;81.60;;;7.10;99.90;;;;;;5029213;28;20695;-54
2023/04/12 04:32:17;;;;;;;892.47;103.90;;;7.10;99.90;;;;;;5028023;28;20630;-53
2023/04/12 04:34:46;;;;;;;1999.90;402.60;;;7.10;99.90;;;;;;5028914;28;20264;-54
2023/04/12 04:37:16;;;;;;;842.67;99.17;;;7.10;99.90;;;;;;5029231;28;20301;-53
2023/04/12 04:39:44;;;;;;;480.80;69.40;;;7.10;99.90;;;;;;5026575;28;20301;-53
2023/04/12 04:42:12;;;;;;;432.33;65.97;;;7.10;99.90;;;;;;5027663;28;20203;-53
2023/04/12 04:44:42;;;;;;;1999.90;263.70;;;7.10;99.90;;;;;;5027390;28;20237;-54
2023/04/12 04:47:10;;;;;;;1508.43;239.63;;;7.10;99.90;;;;;;5028851;28;20297;-53
2023/04/12 04:49:38;;;;;;;900.67;139.37;;;7.10;99.90;;;;;;5027839;28;20264;-53
2023/04/12 04:52:08;;;;;;;535.00;57.50;;;7.20;99.90;;;;;;5025049;28;20245;-53
2023/04/12 04:54:36;;;;;;;910.50;97.27;;;7.20;99.90;;;;;;5028069;28;20218;-53
2023/04/12 04:57:06;;;;;;;80.40;25.83;;;7.30;99.90;;;;;;5029102;28;20257;-54
2023/04/12 04:59:35;;;;;;;1109.83;147.43;;;7.20;99.90;;;;;;5028207;28;20207;-53
2023/04/12 05:02:04;;;;;;;663.80;94.87;;;7.20;99.90;;;;;;5028011;28;20755;-54
2023/04/12 05:04:32;;;;;;;1663.50;221.07;;;7.20;99.90;;;;;;5027534;28;20226;-54
2023/04/12 05:07:00;;;;;;;619.03;84.70;;;7.30;99.90;;;;;;5027746;28;20254;-53
2023/04/12 05:09:29;;;;;;;388.73;70.53;;;7.30;99.90;;;;;;5026293;28;20216;-54
2023/04/12 05:11:57;;;;;;;1945.47;212.53;;;7.30;99.90;;;;;;5027733;28;20214;-54
2023/04/12 05:14:25;;;;;;;1272.50;135.73;;;7.30;99.90;;;;;;5028890;28;20253;-53
2023/04/12 05:17:13;;;;;;;127.53;31.23;;;7.30;99.90;;;;;;5028635;28;20204;-54
2023/04/12 05:19:42;;;;;;;559.20;84.80;;;7.30;99.90;;;;;;5029492;28;20214;-53
2023/04/12 05:22:11;;;;;;;1170.67;167.53;;;7.30;99.90;;;;;;5029187;28;20259;-53
2023/04/12 05:24:39;;;;;;;1400.43;151.63;;;7.30;99.90;;;;;;5025916;28;20720;-52
2023/04/12 05:27:07;;;;;;;1999.90;321.70;;;7.30;99.90;;;;;;5029390;28;20206;-54
2023/04/12 05:29:35;;;;;;;1999.90;246.47;;;7.30;99.90;;;;;;5018867;28;20238;-54
2023/04/12 05:32:03;;;;;;;1999.90;592.60;;;7.30;99.90;;;;;;5027507;28;20686;-54
2023/04/12 05:34:33;;;;;;;1999.90;565.83;;;7.30;99.90;;;;;;5026659;28;20302;-53
2023/04/12 05:37:01;;;;;;;1999.37;210.33;;;7.20;99.90;;;;;;5029034;28;20305;-53
2023/04/12 05:39:29;;;;;;;1999.90;264.83;;;7.20;99.90;;;;;;5028817;28;20213;-54
2023/04/12 05:41:57;;;;;;;534.70;74.20;;;7.20;99.90;;;;;;5028037;28;20302;-53
2023/04/12 05:44:25;;;;;;;1971.77;238.17;;;7.30;99.90;;;;;;5027988;28;20229;-53
2023/04/12 05:46:53;;;;;;;1999.90;399.90;;;7.30;99.90;;;;;;5016647;28;20293;-54
2023/04/12 05:49:21;;;;;;;1881.27;248.90;;;7.30;99.90;;;;;;5021930;28;20294;-54
2023/04/12 05:51:51;;;;;;;1999.90;376.87;;;7.30;99.90;;;;;;5015165;28;20645;-54
2023/04/12 05:54:19;;;;;;;1999.90;288.67;;;7.30;99.90;;;;;;5028644;28;20637;-55
2023/04/12 05:56:48;;;;;;;1692.83;192.40;;;7.30;99.90;;;;;;5028752;28;20210;-54
2023/04/12 05:59:17;;;;;;;1999.90;299.80;;;7.30;99.90;;;;;;5028881;28;20297;-53
2023/04/12 06:01:45;;;;;;;1999.90;443.53;;;7.30;99.90;;;;;;5028442;28;20256;-53
2023/04/12 06:04:14;;;;;;;1869.93;247.07;;;7.30;99.90;;;;;;5028754;28;20270;-53
2023/04/12 06:06:43;;;;;;;1657.40;280.07;;;7.40;99.90;;;;;;5019731;28;20615;-54
2023/04/12 06:09:13;;;;;;;1999.90;436.57;;;7.40;99.90;;;;;;5028722;28;20205;-53
2023/04/12 06:11:41;;;;;;;1999.90;327.87;;;7.40;99.90;;;;;;5028329;28;20222;-54
2023/04/12 06:14:09;;;;;;;1060.70;154.30;;;7.40;99.90;;;;;;5028017;28;20245;-54
2023/04/12 06:16:38;;;;;;;291.47;65.37;;;7.40;99.90;;;;;;5028389;28;20214;-53
2023/04/12 06:19:09;;;;;;;1999.90;383.37;;;7.50;99.90;;;;;;5027565;28;20210;-54
2023/04/12 06:21:37;;;;;;;1457.13;209.47;;;7.50;99.90;;;;;;5028437;28;20245;-53
2023/04/12 06:24:06;;;;;;;1296.00;176.03;;;7.60;99.90;;;;;;5026307;28;20396;-54
2023/04/12 06:26:36;;;;;;;1999.90;401.87;;;7.60;99.90;;;;;;5027325;28;20237;-54
2023/04/12 06:29:07;;;;;;;1997.77;294.30;;;7.60;99.90;;;;;;5031419;28;20213;-54
2023/04/12 06:31:35;;;;;;;1521.57;225.43;;;7.60;99.90;;;;;;5036263;28;20627;-53
2023/04/12 06:34:03;;;;;;;1999.90;590.10;;;7.60;99.90;;;;;;5028397;28;20226;-53
2023/04/12 06:36:31;;;;;;;874.23;133.10;;;7.60;99.90;;;;;;5027241;28;20297;-55
2023/04/12 06:38:59;;;;;;;695.00;109.17;;;7.60;99.90;;;;;;5027756;28;20680;-54
2023/04/12 06:41:27;;;;;;;1999.90;287.90;;;7.70;99.90;;;;;;5027890;28;20213;-53
2023/04/12 06:43:56;;;;;;;1901.47;226.67;;;7.70;99.90;;;;;;5019862;28;20239;-55
2023/04/12 06:46:28;;;;;;;440.73;64.80;;;7.70;99.90;;;;;;5027970;28;20252;-54
2023/04/12 06:48:56;;;;;;;1999.90;368.43;;;7.70;99.90;;;;;;5028043;28;20202;-56
2023/04/12 06:51:24;;;;;;;949.63;99.47;;;7.70;99.90;;;;;;5025785;28;20767;-54
2023/04/12 06:53:52;;;;;;;1999.90;332.80;;;7.70;99.90;;;;;;5020759;28;20238;-54
2023/04/12 06:56:20;;;;;;;439.73;63.80;;;7.70;99.90;;;;;;5027112;28;20214;-54
2023/04/12 06:58:48;;;;;;;1999.90;824.97;;;7.80;99.90;;;;;;5031815;28;20242;-53
2023/04/12 07:01:18;;;;;;;1999.90;305.37;;;7.70;99.90;;;;;;5031286;28;20891;-54
2023/04/12 07:03:46;;;;;;;1999.90;411.20;;;7.80;99.90;;;;;;5031507;28;20225;-54
2023/04/12 07:06:14;;;;;;;427.57;68.47;;;7.80;99.90;;;;;;5031672;28;20230;-53
2023/04/12 07:08:52;;;;;;;1525.83;186.63;;;7.90;99.90;;;;;;5031881;28;20351;-53
2023/04/12 07:11:22;;;;;;;1727.87;204.13;;;7.90;99.90;;;;;;5031320;28;20256;-54
2023/04/12 07:13:51;;;;;;;1095.43;161.60;;;7.90;99.90;;;;;;5031378;28;20257;-55
2023/04/12 07:16:20;;;;;;;1999.90;329.60;;;8.00;99.90;;;;;;5031275;28;20261;-55
2023/04/12 07:18:48;;;;;;;1999.90;236.33;;;8.00;99.90;;;;;;5025306;28;20610;-54
2023/04/12 07:21:17;;;;;;;1999.90;579.27;;;8.00;99.90;;;;;;5024874;28;20206;-52
2023/04/12 07:23:49;;;;;;;1918.87;241.27;;;8.00;99.90;;;;;;5028620;28;20222;-53
2023/04/12 07:26:18;;;;;;;1999.90;322.03;;;8.00;99.90;;;;;;5036953;28;20245;-54
2023/04/12 07:28:46;;;;;;;637.20;77.23;;;8.10;99.90;;;;;;5030346;28;20221;-54
2023/04/12 07:31:15;;;;;;;930.07;152.23;;;8.10;99.90;;;;;;5030552;28;20218;-53
2023/04/12 07:33:44;;;;;;;1234.67;129.93;;;8.10;99.90;;;;;;5028295;28;20681;-55
2023/04/12 07:36:15;;;;;;;1901.30;218.07;;;8.10;99.90;;;;;;5029726;28;20240;-54
2023/04/12 07:38:43;;;;;;;1868.00;220.40;;;8.10;99.90;;;;;;5020758;28;20260;-52
2023/04/12 07:41:11;;;;;;;1588.90;174.33;;;8.20;99.90;;;;;;5025148;28;20297;-53
2023/04/12 07:43:39;;;;;;;1636.93;199.53;;;8.20;99.90;;;;;;5030112;28;20258;-53
2023/04/12 07:46:07;;;;;;;1344.53;191.30;;;8.20;99.90;;;;;;5030110;28;20734;-53
2023/04/12 07:48:36;;;;;;;1999.90;479.13;;;8.20;99.90;;;;;;5029449;28;20206;-53
2023/04/12 07:51:06;;;;;;;976.87;150.20;;;8.30;99.90;;;;;;5029924;28;20749;-54
2023/04/12 07:53:34;;;;;;;525.90;72.77;;;8.20;99.90;;;;;;5029604;28;20265;-53
2023/04/12 07:56:03;;;;;;;579.37;102.60;;;8.20;99.90;;;;;;5030203;28;20954;-52
2023/04/12 07:58:33;;;;;;;1624.50;194.20;;;8.20;99.90;;;;;;5030435;28;20639;-53
2023/04/12 08:01:01;;;;;;;1650.57;196.30;;;8.10;99.90;;;;;;5030131;28;20293;-53
2023/04/12 08:03:29;;;;;;;1395.80;157.13;;;8.10;99.90;;;;;;5021268;28;20321;-53
2023/04/12 08:05:58;;;;;;;1952.33;208.97;;;8.10;99.90;;;;;;5029602;28;20233;-53
2023/04/12 08:08:27;;;;;;;492.90;81.63;;;8.10;99.90;;;;;;5030099;28;20209;-53
2023/04/12 08:10:55;;;;;;;748.07;114.33;;;8.20;99.90;;;;;;5030220;28;20259;-53
2023/04/12 08:13:23;;;;;;;1911.43;202.10;;;8.20;99.90;;;;;;5030160;28;20321;-54
2023/04/12 08:15:51;;;;;;;1169.67;162.20;;;8.30;99.90;;;;;;5027123;28;20285;-54
2023/04/12 08:18:19;;;;;;;1999.90;369.20;;;8.30;99.90;;;;;;5029773;28;20217;-53
2023/04/12 08:20:48;;;;;;;687.63;101.60;;;8.30;99.90;;;;;;5029952;28;20293;-53
2023/04/12 08:23:16;;;;;;;882.13;122.60;;;8.30;99.90;;;;;;5030111;28;20293;-54
2023/04/12 08:25:46;;;;;;;1999.90;324.80;;;8.30;99.90;;;;;;5029653;28;20229;-54
2023/04/12 08:28:14;;;;;;;1928.47;233.80;;;8.30;99.90;;;;;;5029021;28;20220;-53
2023/04/12 08:30:43;;;;;;;1999.90;321.83;;;8.30;99.90;;;;;;5013382;28;20239;-54
2023/04/12 08:33:12;;;;;;;1878.60;238.67;;;8.40;99.90;;;;;;5029432;28;20229;-54
2023/04/12 08:35:40;;;;;;;1999.90;572.57;;;8.40;99.90;;;;;;5028517;28;20625;-53
2023/04/12 08:38:08;;;;;;;1999.90;295.50;;;8.40;99.90;;;;;;5024863;28;20209;-53
2023/04/12 08:40:37;;;;;;;1999.90;421.50;;;8.40;99.90;;;;;;5028854;28;20233;-54
2023/04/12 08:43:08;;;;;;;874.67;146.90;;;8.40;99.90;;;;;;5029121;28;20317;-52
2023/04/12 08:45:38;;;;;;;1999.90;364.53;;;8.50;99.90;;;;;;5026547;28;20226;-53
2023/04/12 08:48:07;;;;;;;1999.90;545.13;;;8.50;99.90;;;;;;5029043;28;20289;-53
2023/04/12 08:50:35;;;;;;;869.73;125.83;;;8.50;99.90;;;;;;5028771;28;20207;-53
2023/04/12 08:53:03;;;;;;;667.37;88.33;;;8.60;99.90;;;;;;5029199;28;20779;-54
2023/04/12 08:55:31;;;;;;;743.70;92.80;;;8.60;99.90;;;;;;5028118;28;20226;-54
2023/04/12 08:58:02;;;;;;;1999.90;410.80;;;8.60;99.90;;;;;;5026234;28;20207;-55
2023/04/12 09:00:34;;;;;;;1719.63;238.43;;;8.50;99.90;;;;;;5028721;28;20209;-52
2023/04/12 09:03:03;;;;;;;1999.90;401.50;;;8.60;99.90;;;;;;5018599;28;20249;-54
2023/04/12 09:05:32;;;;;;;1999.90;322.17;;;8.50;99.90;;;;;;5027012;28;20708;-55
2023/04/12 09:08:00;;;;;;;1999.90;335.90;;;8.50;99.90;;;;;;5023549;28;20206;-54
2023/04/12 09:10:32;;;;;;;1999.90;363.07;;;8.50;99.90;;;;;;5028491;28;20296;-54
2023/04/12 09:13:02;;;;;;;1999.90;374.33;;;8.60;99.90;;;;;;5028336;28;20230;-54
2023/04/12 09:15:33;;;;;;;1729.87;198.17;;;8.50;99.90;;;;;;5027691;28;20260;-55
2023/04/12 09:18:06;;;;;;;1999.90;511.10;;;8.60;99.90;;;;;;5027304;28;20632;-55
2023/04/12 09:20:35;;;;;;;1999.90;306.10;;;8.60;99.90;;;;;;5028261;28;20202;-53
2023/04/12 09:23:17;;;;;;;1571.83;180.90;;;8.60;99.90;;;;;;5028081;28;20261;-54
2023/04/12 09:25:47;;;;;;;1623.40;184.70;;;8.70;99.90;;;;;;5027735;28;20276;-54
2023/04/12 09:28:20;;;;;;;340.33;57.57;;;8.70;99.90;;;;;;5028081;28;20296;-53
2023/04/12 09:30:52;;;;;;;1999.90;292.27;;;8.70;99.90;;;;;;5027396;28;20292;-53
2023/04/12 09:33:22;;;;;;;1999.90;292.90;;;8.70;99.90;;;;;;5026986;28;20744;-54
2023/04/12 09:35:50;;;;;;;1999.90;296.13;;;8.80;99.90;;;;;;5028597;28;20285;-53
2023/04/12 09:38:18;;;;;;;1303.87;179.37;;;8.80;99.90;;;;;;5027446;28;20206;-54
2023/04/12 09:40:47;;;;;;;1999.90;279.30;;;8.80;99.90;;;;;;5027925;28;20289;-55
2023/04/12 09:43:15;;;;;;;1999.90;358.43;;;8.90;99.90;;;;;;5026613;28;20265;-53
2023/04/12 09:45:44;;;;;;;1999.90;329.73;;;8.80;99.90;;;;;;5026788;28;20226;-54
2023/04/12 09:48:20;;;;;;;1999.90;388.83;;;8.90;99.90;;;;;;5025378;28;20597;-54
2023/04/12 09:50:50;;;;;;;1999.90;387.97;;;8.90;99.90;;;;;;5026266;28;20244;-54
2023/04/12 09:53:19;;;;;;;1999.90;274.53;;;8.80;99.90;;;;;;5027621;28;20290;-53
2023/04/12 09:55:48;;;;;;;1999.90;504.13;;;8.90;99.90;;;;;;5027982;28;20203;-54
2023/04/12 09:58:20;;;;;;;1999.90;306.77;;;8.90;99.90;;;;;;5028247;28;20325;-54
2023/04/12 10:00:49;;;;;;;1506.70;151.13;;;8.90;99.90;;;;;;5028203;28;20252;-54
2023/04/12 10:03:20;;;;;;;1534.20;214.43;;;8.90;99.90;;;;;;5027142;28;20792;-54
2023/04/12 10:05:48;;;;;;;1707.87;195.73;;;8.90;99.90;;;;;;5026329;28;20702;-54
2023/04/12 10:08:17;;;;;;;1991.17;232.07;;;9.00;99.90;;;;;;5028100;28;20248;-54
2023/04/12 10:10:45;;;;;;;1433.97;172.17;;;9.00;99.90;;;;;;5028040;28;20715;-54
2023/04/12 10:13:14;;;;;;;1999.90;419.87;;;9.00;99.90;;;;;;5028279;28;20222;-54
2023/04/12 10:15:45;;;;;;;823.07;121.83;;;9.10;99.90;;;;;;5028306;28;20240;-53
2023/04/12 10:18:16;;;;;;;1557.83;203.63;;;9.10;99.90;;;;;;5022980;28;20229;-54
2023/04/12 10:20:46;;;;;;;1999.90;395.57;;;9.00;99.90;;;;;;5028330;28;20324;-55
2023/04/12 10:23:14;;;;;;;1999.90;325.53;;;9.00;99.90;;;;;;5028138;28;20229;-54
2023/04/12 10:25:46;;;;;;;1999.90;363.00;;;9.00;99.90;;;;;;5025206;28;20263;-54
2023/04/12 10:28:17;;;;;;;1999.90;239.10;;;9.00;99.90;;;;;;5027595;28;20305;-55
2023/04/12 10:30:46;;;;;;;1999.90;436.50;;;9.10;99.90;;;;;;5030051;28;20271;-54
2023/04/12 10:33:19;;;;;;;1390.63;166.20;;;9.10;99.90;;;;;;5032250;28;20287;-53
2023/04/12 10:35:54;;;;;;;1999.90;325.03;;;9.10;99.90;;;;;;5031280;28;20203;-54
2023/04/12 10:38:25;;;;;;;1999.90;262.33;;;9.20;99.90;;;;;;5031509;28;20208;-53
2023/04/12 10:41:11;;;;;;;612.67;73.30;;;9.20;99.90;;;;;;5029779;28;20765;-55
2023/04/12 10:43:40;;;;;;;1624.97;201.77;;;9.20;99.90;;;;;;5026491;28;20253;-54
2023/04/12 10:46:08;;;;;;;1999.90;244.10;;;9.20;99.90;;;;;;5031265;28;20602;-54
2023/04/12 10:48:37;;;;;;;1999.90;466.60;;;9.30;99.90;;;;;;5031829;28;20210;-54
2023/04/12 10:51:16;;;;;;;1999.90;369.40;;;9.50;99.90;;;;;;5021820;28;20289;-54
2023/04/12 10:53:45;;;;;;;1999.90;305.00;;;9.60;99.90;;;;;;5031542;28;20225;-54
2023/04/12 10:56:39;;;;;;;1999.90;409.20;;;9.60;99.90;;;;;;5031656;28;20210;-54
2023/04/12 10:59:08;;;;;;;378.57;54.17;;;9.60;99.90;;;;;;5028902;28;20589;-53
2023/04/12 11:01:37;;;;;;;1999.90;429.70;;;9.70;99.90;;;;;;5031015;28;20217;-55
2023/04/12 11:04:17;;;;;;;1999.90;424.90;;;9.70;99.90;;;;;;5031255;28;20272;-53
2023/04/12 11:06:58;;;;;;;1999.90;245.47;;;9.70;99.90;;;;;;5028454;28;20696;-55
2023/04/12 11:09:29;;;;;;;1808.27;171.03;;;9.70;99.90;;;;;;5031092;28;20202;-54
2023/04/12 11:11:58;;;;;;;1999.90;432.53;;;9.80;99.90;;;;;;5030761;28;20265;-54
2023/04/12 11:14:34;;;;;;;1999.90;479.33;;;9.80;99.90;;;;;;5030432;28;20724;-53
2023/04/12 11:17:26;;;;;;;1999.90;420.17;;;9.70;99.90;;;;;;5031566;28;20194;-53
2023/04/12 11:19:57;;;;;;;1999.90;219.27;;;9.80;99.90;;;;;;5024989;28;20233;-53
2023/04/12 11:22:29;;;;;;;1999.90;300.27;;;9.80;99.90;;;;;;5031403;28;20295;-54
2023/04/12 11:24:58;;;;;;;1169.93;141.73;;;9.80;99.90;;;;;;5031151;28;20206;-54
2023/04/12 11:27:27;;;;;;;1999.90;341.60;;;9.80;99.90;;;;;;5015773;28;20289;-53
2023/04/12 11:29:56;;;;;;;1999.90;285.23;;;9.90;99.90;;;;;;5026290;28;20217;-54
2023/04/12 11:32:26;;;;;;;1378.67;154.33;;;10.00;99.90;;;;;;5024200;28;20245;-54
2023/04/12 11:34:57;;;;;;;1999.90;458.07;;;10.00;99.90;;;;;;5031763;28;20210;-54
2023/04/12 11:37:26;;;;;;;1999.90;273.83;;;9.90;99.90;;;;;;5031603;28;20214;-54
2023/04/12 11:39:57;;;;;;;1999.90;285.60;;;10.00;99.90;;;;;;5031438;28;20214;-55
2023/04/12 11:42:26;;;;;;;1999.90;260.07;;;10.00;99.90;;;;;;5030722;28;20573;-54
2023/04/12 11:44:55;;;;;;;1999.90;361.37;;;10.00;99.90;;;;;;5030893;28;20249;-55
2023/04/12 11:47:30;;;;;;;1999.90;382.83;;;10.00;99.90;;;;;;5030675;28;20220;-54
2023/04/12 11:49:59;;;;;;;1999.90;281.40;;;10.00;99.90;;;;;;5031196;28;20212;-53
2023/04/12 11:52:32;;;;;;;1685.53;196.13;;;10.00;99.90;;;;;;5028299;28;20738;-53
2023/04/12 11:55:03;;;;;;;473.83;64.00;;;10.10;99.90;;;;;;5030746;28;20210;-55
2023/04/12 11:57:33;;;;;;;1068.30;129.27;;;10.10;99.90;;;;;;5030300;28;20676;-54
2023/04/12 12:00:04;;;;;;;1999.90;242.30;;;10.10;99.90;;;;;;5030881;28;20301;-55
2023/04/12 12:02:34;;;;;;;1815.57;212.37;;;10.10;99.90;;;;;;5027289;28;20293;-55
2023/04/12 12:05:13;;;;;;;1999.90;302.93;;;10.10;99.90;;;;;;5030844;28;20626;-55
2023/04/12 12:07:43;;;;;;;1999.90;504.00;;;10.10;99.90;;;;;;5030728;28;20231;-54
2023/04/12 12:10:11;;;;;;;1999.90;290.37;;;10.10;99.90;;;;;;5021338;28;20749;-56
2023/04/12 12:12:51;;;;;;;1639.27;193.87;;;10.10;99.90;;;;;;5029090;28;20748;-54
2023/04/12 12:15:19;;;;;;;1043.23;99.97;;;10.20;99.90;;;;;;5029415;28;20297;-55
2023/04/12 12:17:51;;;;;;;1999.90;259.17;;;10.30;99.90;;;;;;5029485;28;20301;-53
2023/04/12 12:20:21;;;;;;;1842.07;192.90;;;10.30;99.90;;;;;;5020129;28;20224;-56
2023/04/12 12:22:51;;;;;;;1999.90;393.63;;;10.40;99.90;;;;;;5027667;28;21344;-53
2023/04/12 12:25:19;;;;;;;1970.17;209.83;;;10.50;99.90;;;;;;5029764;28;20202;-55
2023/04/12 12:27:49;;;;;;;1999.90;454.47;;;10.50;99.90;;;;;;5029878;28;20258;-53
2023/04/12 12:30:18;;;;;;;1999.90;476.10;;;10.50;99.90;;;;;;5029319;28;20242;-54